Latest Weather Observations for Minnipa RS

IDS60801

Issued at 8:02 pm CST Sunday 25 June 2017 (issued every 30 minutes, with the page automatically refreshed every 10 minutes)

About weather observations | Map of weather stations | Latest weather observations for SA | Other Formats
Station Details ID: 018195 Name: MINNIPA PIRSA Lat: -32.84 Lon: 135.15 Height: 165.0 m
Data from the previous 72 hours. | See also: Recent months at Minnipa RS
Date/Time
CST
Temp
°C
App
Temp
°C
Dew
Point
°C
Rel
Hum
%
Delta-T
°C
Wind Press
QNH
hPa
Press
MSL
hPa
Rain since
9am
mm
Dir  Spd
km/h
Gust
km/h
Spd
kts
Gust
kts
25/08:00pm 8.4 5.5 4.8 78 1.6 S 9 9 5 5 1024.0 1024.0 0.0
25/07:30pm 9.4 7.3 5.8 78 1.7 S 6 9 3 5 1023.8 1023.8 0.0
25/07:00pm 9.5 7.1 5.3 75 1.9 SSW 7 9 4 5 1023.5 1023.5 0.0
25/06:30pm 9.9 7.5 5.3 73 2.1 SSW 7 9 4 5 1023.3 1023.4 0.0
25/06:00pm 11.0 7.9 5.7 70 2.5 SSW 11 13 6 7 1022.9 1023.0 0.0
25/05:30pm 12.2 8.8 6.0 66 2.9 SSW 13 19 7 10 1022.9 1023.0 0.0
25/05:00pm 13.2 9.4 5.9 61 3.5 SSW 15 20 8 11 1022.5 1022.6 0.0
25/04:30pm 14.1 9.4 6.0 58 3.9 SW 20 26 11 14 1022.5 1022.6 0.0
25/04:00pm 14.8 10.2 6.6 58 4.0 SSW 20 28 11 15 1022.4 1022.5 0.0
25/03:30pm 15.7 11.1 6.7 55 4.4 SW 20 28 11 15 1022.3 1022.4 0.0
25/03:00pm 15.2 10.7 6.2 55 4.4 SW 19 26 10 14 1022.2 1022.3 0.0
25/02:30pm 15.5 11.1 6.5 55 4.4 SW 19 26 10 14 1022.0 1022.1 0.0
25/02:00pm 15.1 11.4 8.1 63 3.5 SW 17 22 9 12 1022.2 1022.3 0.0
25/01:30pm 14.7 12.3 8.6 67 3.1 WSW 11 19 6 10 1022.5 1022.6 0.0
25/01:00pm 13.3 11.1 9.4 77 2.0 WNW 11 15 6 8 1023.0 1023.1 0.0
25/12:30pm 12.8 9.7 8.7 76 2.1 WSW 15 19 8 10 1023.3 1023.4 0.0
25/12:00pm 13.7 11.3 8.5 71 2.6 SSW 11 17 6 9 1023.6 1023.6 0.0
25/11:30am 12.5 10.3 9.5 82 1.5 W 11 15 6 8 1024.1 1024.1 0.0
25/11:00am 11.4 10.1 9.1 86 1.2 W 6 11 3 6 1024.0 1024.0 0.0
25/10:30am 11.6 8.5 9.0 84 1.3 SW 15 22 8 12 1023.9 1023.9 0.0
25/10:00am 12.8 11.2 8.7 76 2.1 WNW 7 9 4 5 1023.5 1023.5 0.0
25/09:30am 11.5 9.6 9.2 86 1.2 NNW 9 11 5 6 1023.1 1023.2 0.0
25/09:00am 10.0 8.0 8.6 91 0.7 NNW 9 11 5 6 1022.9 1023.0 0.2
25/08:30am 9.1 6.9 8.0 93 0.5 N 9 11 5 6 1022.7 1022.8 0.2
25/08:00am 8.4 6.0 7.2 92 0.6 NNW 9 13 5 7 1022.5 1022.6 0.2
25/07:30am 8.7 6.4 7.3 91 0.7 N 9 13 5 7 1022.0 1022.1 0.2
25/07:00am 8.8 7.4 7.4 91 0.7 NNW 4 7 2 4 1021.7 1021.8 0.2
25/06:30am 8.3 6.4 6.9 91 0.7 SSE 6 6 3 3 1021.5 1021.6 0.0
25/06:00am 8.1 7.3 6.7 91 0.6 CALM 0 0 0 0 1021.2 1021.3 0.0
25/05:30am 7.8 5.6 6.4 91 0.6 SSE 7 7 4 4 1020.9 1021.0 0.0
25/05:00am 7.4 5.2 5.5 88 0.9 SE 6 6 3 3 1020.8 1020.9 0.0
25/04:30am 8.7 6.7 7.0 89 0.8 ESE 7 9 4 5 1020.6 1020.7 0.0
25/04:00am 8.6 6.6 7.2 91 0.7 ESE 7 9 4 5 1020.8 1020.9 0.0
25/03:30am 7.8 5.3 6.6 92 0.6 ESE 9 11 5 6 1020.6 1020.7 0.0
25/03:00am 7.2 4.9 5.7 90 0.7 SE 7 9 4 5 1020.8 1020.9 0.0
25/02:30am 7.5 5.2 5.8 89 0.8 SE 7 7 4 4 1021.0 1021.1 0.0
25/02:00am 8.7 6.3 6.8 88 0.9 SE 9 9 5 5 1021.0 1021.1 0.0
25/01:30am 9.7 7.5 7.8 88 0.9 ESE 9 9 5 5 1020.9 1021.0 0.0
25/01:00am 9.8 9.4 8.1 89 0.8 CALM 0 0 0 0 1021.1 1021.2 0.0
25/12:30am 9.7 8.1 8.0 89 0.8 SE 6 7 3 4 1021.2 1021.3 0.0
25/12:00am 9.7 7.9 8.0 89 0.8 SE 7 11 4 6 1021.3 1021.4 0.0
 
Date/Time
CST
Temp
°C
App
Temp
°C
Dew
Point
°C
Rel
Hum
%
Delta-T
°C
Wind Press
QNH
hPa
Press
MSL
hPa
Rain since
9am
mm
Dir  Spd
km/h
Gust
km/h
Spd
kts
Gust
kts
24/11:30pm 9.1 6.4 7.4 89 0.8 SE 11 13 6 7 1021.3 1021.4 0.0
24/11:00pm 9.1 6.4 7.5 90 0.8 SE 11 13 6 7 1021.3 1021.4 0.0
24/10:30pm 9.2 6.2 7.6 90 0.8 SE 13 15 7 8 1021.1 1021.2 0.0
24/10:00pm 9.1 6.4 7.4 89 0.8 SE 11 13 6 7 1021.0 1021.1 0.0
24/09:30pm 9.8 7.2 7.7 87 1.0 SSE 11 13 6 7 1021.0 1021.1 0.0
24/09:00pm 10.6 8.5 8.4 86 1.1 SSE 9 13 5 7 1021.0 1021.1 0.0
24/08:30pm 11.2 8.5 8.8 85 1.2 S 13 17 7 9 1020.7 1020.8 0.0
24/08:00pm 11.3 8.1 8.5 83 1.4 S 15 17 8 9 1020.3 1020.4 0.0
24/07:30pm 11.6 9.6 8.5 81 1.5 SSW 9 11 5 6 1020.1 1020.2 0.0
24/07:00pm 11.9 11.4 9.3 84 1.3 WSW 2 7 1 4 1019.9 1020.0 0.0
24/06:30pm 11.6 10.2 8.8 83 1.4 NW 6 7 3 4 1019.6 1019.7 0.0
24/06:00pm 12.0 10.0 8.5 79 1.7 N 9 9 5 5 1019.4 1019.4 0.0
24/05:30pm 13.4 11.8 8.9 74 2.3 NW 7 9 4 5 1019.3 1019.3 0.0
24/05:00pm 15.5 14.1 9.6 68 3.1 NW 7 9 4 5 1019.2 1019.2 0.0
24/04:30pm 16.1 14.9 9.5 65 3.4 WNW 6 9 3 5 1019.1 1019.1 0.0
24/04:00pm 15.8 14.0 9.5 66 3.3 WSW 9 13 5 7 1019.2 1019.2 0.0
24/03:30pm 15.8 14.8 10.3 70 2.9 W 6 11 3 6 1019.1 1019.1 0.0
24/03:00pm 15.4 13.4 10.2 71 2.7 W 11 15 6 8 1019.1 1019.1 0.0
24/02:30pm 14.5 13.4 10.5 77 2.1 WNW 7 15 4 8 1019.1 1019.1 0.0
24/02:00pm 13.3 12.1 10.3 82 1.6 NW 7 11 4 6 1019.2 1019.2 0.0
24/01:30pm 13.3 12.0 11.4 88 1.0 WSW 9 13 5 7 1019.6 1019.7 0.0
24/01:00pm 12.8 13.3 11.7 93 0.6 CALM 0 7 0 4 1019.8 1019.9 0.0
24/12:30pm 12.7 13.3 11.9 95 0.4 CALM 0 0 0 0 1020.1 1020.2 0.0
24/12:00pm 12.1 12.1 11.3 95 0.4 WSW 2 7 1 4 1020.4 1020.5 0.0
24/11:30am 11.7 10.9 10.9 95 0.4 WSW 6 6 3 3 1020.6 1020.7 0.0
24/11:00am 10.8 10.5 10.0 95 0.4 WSW 2 7 1 4 1020.9 1021.0 0.0
24/10:30am 10.9 9.3 10.1 95 0.4 WSW 9 13 5 7 1021.1 1021.2 0.0
24/10:00am 10.7 9.4 9.9 95 0.4 WNW 7 9 4 5 1020.9 1021.0 0.0
24/09:30am 9.8 7.9 9.0 95 0.4 NW 9 11 5 6 1020.5 1020.6 0.0
24/09:00am 9.6 8.0 8.8 95 0.4 NNW 7 11 4 6 1020.1 1020.2 0.4
24/08:30am 8.8 6.3 8.0 95 0.4 NNW 11 13 6 7 1020.0 1020.1 0.4
24/08:00am 9.2 6.7 8.4 95 0.4 NNE 11 13 6 7 1019.6 1019.7 0.4
24/07:30am 8.2 5.5 7.4 95 0.4 NNE 11 13 6 7 1019.3 1019.3 0.4
24/07:00am 7.8 5.4 6.9 94 0.4 NE 9 11 5 6 1019.0 1019.0 0.4
24/06:30am 8.4 6.4 7.3 93 0.5 NNE 7 11 4 6 1018.9 1018.9 0.4
24/06:00am 9.9 8.0 9.0 94 0.4 N 9 9 5 5 1018.7 1018.7 0.4
24/05:30am 9.7 8.1 8.8 94 0.4 NNW 7 9 4 5 1018.6 1018.6 0.4
24/05:00am 10.9 9.2 10.0 94 0.5 NNW 9 11 5 6 1018.6 1018.6 0.4
24/04:30am 11.3 9.8 10.4 94 0.5 NNW 9 11 5 6 1018.7 1018.7 0.4
24/04:00am 11.7 10.6 10.8 94 0.5 NNW 7 11 4 6 1018.9 1018.9 0.4
24/03:30am 11.8 10.3 10.7 93 0.6 NNW 9 11 5 6 1018.9 1018.9 0.4
24/03:00am 12.1 10.7 11.0 93 0.6 W 9 13 5 7 1018.8 1018.8 0.4
24/02:30am 12.0 11.0 10.9 93 0.6 WSW 7 11 4 6 1018.6 1018.6 0.4
24/02:00am 12.0 10.9 10.7 92 0.7 W 7 9 4 5 1018.7 1018.7 0.4
24/01:30am 11.5 10.4 10.1 91 0.7 W 6 9 3 5 1018.7 1018.7 0.4
24/01:00am 11.5 9.4 9.9 90 0.8 NW 11 13 6 7 1018.8 1018.8 0.4
24/12:30am 11.2 8.0 8.6 84 1.3 N 15 19 8 10 1018.9 1018.9 0.4
24/12:00am 11.2 8.5 8.8 85 1.2 NNE 13 17 7 9 1018.8 1018.8 0.4
 
Date/Time
CST
Temp
°C
App
Temp
°C
Dew
Point
°C
Rel
Hum
%
Delta-T
°C
Wind Press
QNH
hPa
Press
MSL
hPa
Rain since
9am
mm
Dir  Spd
km/h
Gust
km/h
Spd
kts
Gust
kts
23/11:30pm 11.0 8.8 7.7 80 1.6 N 9 11 5 6 1019.0 1019.0 0.4
23/11:00pm 12.0 8.8 8.5 79 1.7 NNE 15 17 8 9 1018.9 1018.9 0.4
23/10:30pm 12.0 8.4 8.5 79 1.7 N 17 17 9 9 1019.4 1019.4 0.4
23/10:00pm 11.5 8.8 7.2 75 2.1 N 11 13 6 7 1019.4 1019.4 0.4
23/09:30pm 12.8 12.5 8.5 75 2.2 CALM 0 7 0 4 1019.4 1019.4 0.4
23/09:00pm 11.4 11.0 8.1 80 1.6 CALM 0 0 0 0 1019.4 1019.4 0.4
23/08:30pm 12.9 11.4 8.6 75 2.2 NW 6 7 3 4 1019.5 1019.5 0.4
23/08:00pm 13.0 11.2 9.4 79 1.8 NW 9 11 5 6 1019.4 1019.4 0.4
23/07:30pm 13.1 11.3 9.5 79 1.8 NNW 9 11 5 6 1019.3 1019.3 0.4
23/07:00pm 13.0 11.6 9.4 79 1.8 NW 7 9 4 5 1018.7 1018.7 0.4
23/06:30pm 13.6 12.6 10.2 80 1.8 NW 6 7 3 4 1018.5 1018.5 0.4
23/06:00pm 13.5 11.9 10.1 80 1.8 NW 9 11 5 6 1018.2 1018.2 0.4
23/05:30pm 14.2 11.9 10.6 79 1.9 NNW 13 13 7 7 1017.7 1017.7 0.4
23/05:00pm 15.1 12.6 10.9 76 2.2 N 15 19 8 10 1017.4 1017.4 0.4
23/04:30pm 16.1 14.4 11.1 72 2.7 N 11 15 6 8 1017.0 1017.1 0.4
23/04:00pm 16.4 15.0 10.9 70 3.0 W 9 11 5 6 1017.0 1017.1 0.4
23/03:30pm 16.5 15.2 11.4 72 2.8 NW 9 17 5 9 1016.9 1017.0 0.4
23/03:00pm 15.5 13.4 11.1 75 2.4 N 13 17 7 9 1017.0 1017.1 0.4
23/02:30pm 14.8 11.9 11.0 78 2.0 N 17 20 9 11 1017.3 1017.3 0.4
23/02:00pm 14.7 12.6 11.1 79 1.9 NW 13 17 7 9 1018.3 1018.3 0.2
23/01:30pm 15.5 13.0 10.9 74 2.5 NW 15 17 8 9 1018.6 1018.6 0.2
23/01:00pm 15.3 12.6 10.5 73 2.6 NW 15 19 8 10 1018.7 1018.7 0.2
23/12:30pm 14.9 11.4 10.1 73 2.5 NNW 19 22 10 12 1019.1 1019.1 0.2
23/12:00pm 14.9 11.5 10.5 75 2.3 NNW 19 24 10 13 1019.6 1019.7 0.2
23/11:30am 14.1 10.4 10.3 78 2.0 NNW 20 24 11 13 1019.9 1020.0 0.2
23/11:00am 13.4 10.5 9.8 79 1.9 NNW 15 19 8 10 1020.1 1020.2 0.2
23/10:30am 12.9 9.7 8.6 75 2.2 NNW 15 17 8 9 1020.3 1020.4 0.0
23/10:00am 13.4 9.0 6.7 64 3.3 NNW 19 28 10 15 1020.3 1020.4 0.0
23/09:30am 14.8 10.1 3.3 46 5.2 NNW 17 20 9 11 1020.0 1020.1 0.0
23/09:00am 14.1 9.0 3.0 47 5.0 NNW 19 24 10 13 1019.7 1019.8 0.0
23/08:30am 13.7 8.9 2.6 47 4.9 NNW 17 20 9 11 1019.4 1019.4 0.0
23/08:00am 13.4 8.6 2.6 48 4.8 N 17 22 9 12 1019.1 1019.1 0.0
23/07:30am 13.6 8.8 2.5 47 4.9 N 17 22 9 12 1018.9 1018.9 0.0
23/07:00am 13.4 8.9 2.3 47 4.9 N 15 17 8 9 1018.6 1018.6 0.0
23/06:30am 13.7 8.8 2.3 46 5.0 N 17 22 9 12 1018.6 1018.6 0.0
23/06:00am 13.6 8.7 2.2 46 5.0 N 17 22 9 12 1018.3 1018.3 0.0
23/05:30am 13.3 8.4 2.2 47 4.9 N 17 22 9 12 1018.0 1018.0 0.0
23/05:00am 13.6 8.4 2.2 46 5.0 N 19 22 10 12 1018.0 1018.0 0.0
23/04:30am 13.1 8.5 1.8 46 4.9 N 15 22 8 12 1018.3 1018.3 0.0
23/04:00am 13.7 8.2 2.0 45 5.1 N 20 28 11 15 1017.9 1017.9 0.0
23/03:30am 13.7 8.4 2.0 45 5.1 NNE 19 24 10 13 1018.2 1018.2 0.0
23/03:00am 13.1 8.2 1.8 46 4.9 NNE 17 19 9 10 1018.5 1018.5 0.0
23/02:30am 12.6 7.6 1.6 47 4.7 NE 17 20 9 11 1018.6 1018.6 0.0
23/02:00am 12.3 7.3 1.3 47 4.7 NE 17 19 9 10 1019.0 1019.0 0.0
23/01:30am 11.8 6.8 1.2 48 4.5 NE 17 20 9 11 1019.2 1019.2 0.0
23/01:00am 11.2 5.7 0.9 49 4.3 NE 19 22 10 12 1019.4 1019.4 0.0
23/12:30am 11.0 5.9 0.7 49 4.3 NE 17 20 9 11 1019.8 1019.9 0.0
23/12:00am 11.4 6.3 0.5 47 4.5 NE 17 19 9 10 1020.2 1020.3 0.0
 
Date/Time
CST
Temp
°C
App
Temp
°C
Dew
Point
°C
Rel
Hum
%
Delta-T
°C
Wind Press
QNH
hPa
Press
MSL
hPa
Rain since
9am
mm
Dir  Spd
km/h
Gust
km/h
Spd
kts
Gust
kts
22/11:30pm 11.6 5.9 0.4 46 4.6 NE 20 22 11 12 1020.0 1020.1 0.0
22/11:00pm 11.2 5.4 0.0 46 4.6 NE 20 22 11 12 1020.3 1020.4 0.0
22/10:30pm 11.8 6.0 0.0 44 4.9 NE 20 22 11 12 1020.4 1020.5 0.0
22/10:00pm 11.4 5.8 -0.1 45 4.7 NE 19 22 10 12 1020.7 1020.8 0.0
22/09:30pm 11.7 6.6 0.5 46 4.7 NE 17 20 9 11 1021.0 1021.1 0.0
22/09:00pm 11.5 6.3 0.0 45 4.7 NE 17 19 9 10 1021.2 1021.3 0.0
22/08:30pm 12.5 7.3 0.3 43 5.1 NNE 17 19 9 10 1021.3 1021.4 0.0

Other Formats:

Comma delimited format used in spreadsheet applications
http://www.bom.gov.au/fwo/IDS60801/IDS60801.95662.axf

JavaScript Object Notation format (JSON) in row-major order
http://www.bom.gov.au/fwo/IDS60801/IDS60801.95662.json